Gallipolis Ferry, West Virginia
Current Conditions -  °F | °C
As of 9:55 AM on Monday 24 Nov 2014 (Local Time) from K3I2 Reporting Station
Broken Clouds Broken Clouds  
Wind Chill: 68°   Ceiling: 6500
Heat Index: 68°   Visibility: 10mi
Dew Point: 46°   Wind: 17mph
Humidity: 46%   Direction: 220°SW
Pressure: 29.48"   Gusts: 33mph
Location:  38.77°N, 82.2°W
Report Text: K3I2 241455Z AUTO 22015G29KT 10SM BKN065 BKN075 20/08 A2948 RMK AO2
Loading
Personal Weather Stations






























Interactive Weather Map New forecast layout! Learn more

10-Day Weather Forecast

Advertisements
Track Severe Weather on mobile